Time;durP1;ratioP1;P1;durP2;ratioP2;P2;SDS_P1;SDS_P2;PMS_P1;PMS_P2;Temp;Humidity;BMP_temperature;BMP_pressure;BME280_temperature;BME280_humidity;BME280_pressure;Samples;Min_cycle;Max_cycle;Signal;HPM_P1;HPM_P2
2023/04/25 00:02:22;;;;;;;;;;;;;;;10.55;48.10;99245.16;5094759;28;19919;-60
2023/04/25 00:04:49;;;;;;;;;;;;;;;10.69;48.66;99248.47;5094678;28;20446;-60
2023/04/25 00:07:14;;;;;;;;;;;;;;;10.68;48.73;99244.19;5096261;28;19912;-60
2023/04/25 00:09:39;;;;;;;;;;;;;;;10.70;48.75;99234.03;5095333;28;20010;-60
2023/04/25 00:12:05;;;;;;;;;;;;;;;10.64;48.45;99237.59;5096113;28;20401;-59
2023/04/25 00:14:33;;;;;;;;;;;;;;;10.64;48.55;99229.53;5096457;28;19926;-61
2023/04/25 00:16:58;;;;;;;;;;;;;;;10.68;48.76;99233.44;5095071;28;19916;-59
2023/04/25 00:19:24;;;;;;;;;;;;;;;10.60;48.92;99226.47;5096055;28;19926;-59
2023/04/25 00:21:49;;;;;;;;;;;;;;;10.55;49.22;99225.50;5096378;28;20245;-59
2023/04/25 00:24:15;;;;;;;;;;;;;;;10.56;49.32;99230.66;5096876;28;19935;-59
2023/04/25 00:26:40;;;;;;;;;;;;;;;10.61;48.29;99232.69;5096491;28;19928;-60
2023/04/25 00:29:05;;;;;;;;;;;;;;;10.42;48.39;99221.94;5096184;28;19934;-60
2023/04/25 00:31:30;;;;;;;;;;;;;;;10.45;48.72;99220.66;5095345;28;20288;-61
2023/04/25 00:33:56;;;;;;;;;;;;;;;10.38;49.54;99219.91;5094568;28;20007;-59
2023/04/25 00:36:21;;;;;;;;;;;;;;;10.46;49.32;99208.91;5095817;28;20002;-59
2023/04/25 00:38:47;;;;;;;;;;;;;;;10.50;48.97;99218.16;5094024;28;19946;-57
2023/04/25 00:41:12;;;;;;;;;;;;;;;10.45;48.89;99216.13;5095912;28;19912;-60
2023/04/25 00:43:39;;;;;;;;;;;;;;;10.38;48.74;99219.91;5095663;28;19975;-59
2023/04/25 00:46:04;;;;;;;;;;;;;;;10.46;48.87;99212.41;5076898;28;19927;-58
2023/04/25 00:48:29;;;;;;;;;;;;;;;10.49;48.35;99211.13;5095649;28;20631;-58
2023/04/25 00:50:57;;;;;;;;;;;;;;;10.50;48.64;99190.50;5095612;28;19912;-60
2023/04/25 00:53:23;;;;;;;;;;;;;;;10.45;48.53;99186.59;5094620;28;19916;-61
2023/04/25 00:55:50;;;;;;;;;;;;;;;10.46;48.61;99192.81;5095560;28;20357;-60
2023/04/25 00:58:16;;;;;;;;;;;;;;;10.26;48.55;99184.94;5095802;28;19934;-60
2023/04/25 01:00:41;;;;;;;;;;;;;;;10.27;48.97;99195.44;5094162;28;19920;-60
2023/04/25 01:03:07;;;;;;;;;;;;;;;10.27;49.03;99189.28;5095170;28;19913;-60
2023/04/25 01:05:32;;;;;;;;;;;;;;;10.19;48.40;99181.50;5095817;28;19912;-59
2023/04/25 01:07:58;;;;;;;;;;;;;;;10.20;49.56;99188.53;5095592;28;19938;-57
2023/04/25 01:10:23;;;;;;;;;;;;;;;10.07;48.65;99186.78;5095693;28;19983;-59
2023/04/25 01:12:49;;;;;;;;;;;;;;;10.14;49.23;99184.88;5093984;28;19969;-58
2023/04/25 01:15:14;;;;;;;;;;;;;;;10.18;48.95;99180.69;5095368;28;19916;-60
2023/04/25 01:17:41;;;;;;;;;;;;;;;10.20;48.81;99183.97;5095101;28;20613;-58
2023/04/25 01:20:07;;;;;;;;;;;;;;;10.14;49.17;99175.97;5094859;28;19912;-60
2023/04/25 01:22:33;;;;;;;;;;;;;;;10.21;48.50;99188.28;5094302;28;19916;-60
2023/04/25 01:24:59;;;;;;;;;;;;;;;10.20;48.68;99188.53;5095570;28;19937;-59
2023/04/25 01:27:25;;;;;;;;;;;;;;;10.15;49.12;99174.94;5095746;28;19938;-60
2023/04/25 01:29:50;;;;;;;;;;;;;;;10.13;48.15;99198.50;5096297;28;20034;-59
2023/04/25 01:32:16;;;;;;;;;;;;;;;10.18;48.57;99186.06;5098572;28;19916;-59
2023/04/25 01:34:42;;;;;;;;;;;;;;;10.14;48.19;99200.97;5098764;28;19920;-59
2023/04/25 01:37:07;;;;;;;;;;;;;;;10.21;48.96;99190.13;5097746;28;19912;-60
2023/04/25 01:39:33;;;;;;;;;;;;;;;9.69;48.17;99112.69;5098800;28;19970;-58
2023/04/25 01:41:58;;;;;;;;;;;;;;;10.17;48.15;99187.09;5098901;28;19912;-58
2023/04/25 01:44:24;;;;;;;;;;;;;;;10.16;49.01;99172.03;5098289;28;19923;-58
2023/04/25 01:46:49;;;;;;;;;;;;;;;10.20;49.42;99172.41;5098745;28;20314;-60
2023/04/25 01:49:14;;;;;;;;;;;;;;;10.14;48.65;99170.59;5098595;28;19916;-60
2023/04/25 01:51:40;;;;;;;;;;;;;;;10.15;48.62;99169.59;5098671;28;19912;-58
2023/04/25 01:54:05;;;;;;;;;;;;;;;10.16;47.92;99171.19;5081219;28;19916;-58
2023/04/25 01:56:31;;;;;;;;;;;;;;;10.23;48.71;99172.78;5098929;28;19920;-59
2023/04/25 01:58:57;;;;;;;;;;;;;;;10.15;47.91;99180.31;5098352;28;19916;-59
2023/04/25 02:01:22;;;;;;;;;;;;;;;10.16;48.04;99180.09;5099186;28;19912;-59
2023/04/25 02:03:48;;;;;;;;;;;;;;;10.08;48.45;99175.00;5099509;28;19912;-58
2023/04/25 02:06:13;;;;;;;;;;;;;;;10.17;48.90;99178.22;5098037;28;19916;-57
2023/04/25 02:08:38;;;;;;;;;;;;;;;10.07;48.48;99187.59;5097583;28;19924;-58
2023/04/25 02:11:03;;;;;;;;;;;;;;;10.00;48.02;99170.75;5099150;28;19974;-58
2023/04/25 02:13:30;;;;;;;;;;;;;;;10.06;48.32;99177.09;5097756;28;19920;-61
2023/04/25 02:15:55;;;;;;;;;;;;;;;10.00;48.46;99184.16;5097453;28;20482;-60
2023/04/25 02:18:21;;;;;;;;;;;;;;;9.90;47.96;99167.78;5098118;28;19916;-58
2023/04/25 02:20:46;;;;;;;;;;;;;;;9.96;48.75;99180.28;5097509;28;19916;-58
2023/04/25 02:23:12;;;;;;;;;;;;;;;9.77;47.75;99186.66;5100436;28;19912;-60
2023/04/25 02:25:37;;;;;;;;;;;;;;;10.03;48.03;99183.72;5100332;28;19912;-59
2023/04/25 02:28:02;;;;;;;;;;;;;;;10.12;47.99;99184.25;5098010;28;19912;-58
2023/04/25 02:30:28;;;;;;;;;;;;;;;10.10;47.81;99191.69;5098094;28;19912;-60
2023/04/25 02:32:53;;;;;;;;;;;;;;;10.07;48.06;99173.38;5098358;28;19919;-58
2023/04/25 02:35:19;;;;;;;;;;;;;;;10.00;48.84;99184.16;5098316;28;19916;-59
2023/04/25 02:37:44;;;;;;;;;;;;;;;10.04;48.56;99174.63;5098209;28;19912;-59
2023/04/25 02:40:10;;;;;;;;;;;;;;;10.06;49.24;99175.22;5097968;28;20305;-58
2023/04/25 02:42:35;;;;;;;;;;;;;;;9.97;47.76;99183.78;5097776;28;19952;-60
2023/04/25 02:45:01;;;;;;;;;;;;;;;9.94;49.57;99177.00;5098346;28;19912;-58
2023/04/25 02:47:26;;;;;;;;;;;;;;;9.91;49.36;99188.16;5098289;28;20370;-58
2023/04/25 02:49:52;;;;;;;;;;;;;;;9.84;48.68;99185.56;5095459;28;20307;-59
2023/04/25 02:52:17;;;;;;;;;;;;;;;9.85;48.28;99171.09;5097675;28;20618;-58
2023/04/25 02:54:43;;;;;;;;;;;;;;;9.75;48.53;99180.69;5099058;28;19938;-58
2023/04/25 02:57:08;;;;;;;;;;;;;;;9.56;48.55;99179.81;5099154;28;19912;-59
2023/04/25 02:59:33;;;;;;;;;;;;;;;9.73;49.29;99183.56;5098138;28;19966;-60
2023/04/25 03:01:58;;;;;;;;;;;;;;;9.71;48.35;99179.50;5098866;28;19919;-59
2023/04/25 03:04:24;;;;;;;;;;;;;;;9.80;48.91;99175.50;5098262;28;20046;-61
2023/04/25 03:06:50;;;;;;;;;;;;;;;9.76;48.80;99182.34;5097746;28;20030;-59
2023/04/25 03:09:15;;;;;;;;;;;;;;;9.70;49.36;99173.31;5098029;28;19919;-60
2023/04/25 03:11:40;;;;;;;;;;;;;;;9.36;48.23;99179.97;5098176;28;19916;-59
2023/04/25 03:14:06;;;;;;;;;;;;;;;9.57;49.77;99192.19;5097320;28;19934;-60
2023/04/25 03:16:31;;;;;;;;;;;;;;;9.60;49.86;99179.19;5097017;28;19924;-60
2023/04/25 03:18:56;;;;;;;;;;;;;;;9.48;49.52;99179.03;5095508;28;20473;-59
2023/04/25 03:21:22;;;;;;;;;;;;;;;9.58;50.04;99183.91;5095974;28;19923;-59
2023/04/25 03:23:47;;;;;;;;;;;;;;;9.53;49.39;99185.59;5097621;28;19912;-58
2023/04/25 03:26:12;;;;;;;;;;;;;;;9.49;49.50;99169.16;5097121;28;19952;-58
2023/04/25 03:28:39;;;;;;;;;;;;;;;9.41;48.97;99169.44;5097413;28;19912;-61
2023/04/25 03:31:04;;;;;;;;;;;;;;;9.38;49.89;99157.28;5096944;28;19964;-58
2023/04/25 03:33:30;;;;;;;;;;;;;;;9.55;50.02;99172.84;5096185;28;19979;-60
2023/04/25 03:35:55;;;;;;;;;;;;;;;9.51;49.36;99169.78;5097148;28;19965;-59
2023/04/25 03:38:20;;;;;;;;;;;;;;;9.34;50.78;99165.97;5097040;28;19916;-60
2023/04/25 03:40:46;;;;;;;;;;;;;;;9.25;50.52;99158.22;5096475;28;19912;-60
2023/04/25 03:43:11;;;;;;;;;;;;;;;9.36;50.79;99158.53;5097703;28;19948;-60
2023/04/25 03:45:36;;;;;;;;;;;;;;;9.26;51.05;99159.84;5097173;28;19923;-58
2023/04/25 03:48:02;;;;;;;;;;;;;;;9.36;51.34;99167.41;5097497;28;20342;-60
2023/04/25 03:50:27;;;;;;;;;;;;;;;9.19;50.88;99177.81;5097503;28;19923;-59
2023/04/25 03:52:52;;;;;;;;;;;;;;;9.19;51.03;99171.63;5096337;28;20297;-59
2023/04/25 03:55:18;;;;;;;;;;;;;;;9.09;50.85;99180.16;5097380;28;20395;-60
2023/04/25 03:57:43;;;;;;;;;;;;;;;9.11;51.36;99184.25;5097400;28;19916;-59
2023/04/25 04:00:09;;;;;;;;;;;;;;;9.03;52.00;99184.53;5096953;28;19998;-58
2023/04/25 04:02:36;;;;;;;;;;;;;;;9.14;51.51;99185.69;5096574;28;19978;-59
2023/04/25 04:05:01;;;;;;;;;;;;;;;9.09;52.06;99175.63;5095258;28;20030;-59
2023/04/25 04:07:27;;;;;;;;;;;;;;;8.87;51.59;99174.31;5096677;28;19916;-59
2023/04/25 04:09:52;;;;;;;;;;;;;;;8.76;51.74;99186.50;5097352;28;19918;-60
2023/04/25 04:12:17;;;;;;;;;;;;;;;8.75;52.35;99186.72;5096821;28;19920;-60
2023/04/25 04:14:46;;;;;;;;;;;;;;;8.86;52.20;99192.22;5096630;28;20274;-61
2023/04/25 04:17:12;;;;;;;;;;;;;;;8.80;52.65;99187.72;5095880;28;19916;-61
2023/04/25 04:19:37;;;;;;;;;;;;;;;8.69;52.31;99186.56;5094322;28;20360;-57
2023/04/25 04:22:02;;;;;;;;;;;;;;;8.62;52.21;99199.13;5096641;28;19920;-60
2023/04/25 04:24:28;;;;;;;;;;;;;;;8.57;53.68;99193.59;5096527;28;19992;-60
2023/04/25 04:26:53;;;;;;;;;;;;;;;8.51;54.06;99192.59;5096010;28;19913;-60
2023/04/25 04:29:20;;;;;;;;;;;;;;;8.47;53.85;99198.59;5095975;28;20544;-60
2023/04/25 04:31:50;;;;;;;;;;;;;;;8.56;53.79;99193.81;5096573;28;20370;-60
2023/04/25 04:34:16;;;;;;;;;;;;;;;8.51;53.33;99192.59;5095681;28;19962;-60
2023/04/25 04:36:41;;;;;;;;;;;;;;;8.54;53.92;99199.34;5096588;28;19913;-60
2023/04/25 04:39:08;;;;;;;;;;;;;;;8.56;53.64;99202.63;5096348;28;19975;-59
2023/04/25 04:41:33;;;;;;;;;;;;;;;8.59;53.42;99196.06;5096228;28;19919;-59
2023/04/25 04:44:00;;;;;;;;;;;;;;;8.59;54.45;99202.22;5096678;28;20151;-58
2023/04/25 04:46:27;;;;;;;;;;;;;;;8.50;54.76;99203.50;5096322;28;19912;-60
2023/04/25 04:48:53;;;;;;;;;;;;;;;8.52;54.09;99190.72;5094606;28;20010;-61
2023/04/25 04:51:18;;;;;;;;;;;;;;;8.49;53.26;99196.53;5095143;28;20009;-59
2023/04/25 04:53:43;;;;;;;;;;;;;;;8.58;54.87;99197.94;5095186;28;19919;-62
2023/04/25 04:56:09;;;;;;;;;;;;;;;8.52;54.25;99204.09;5094402;28;19923;-59
2023/04/25 04:58:36;;;;;;;;;;;;;;;8.69;54.38;99202.63;5094956;28;19977;-58
2023/04/25 05:01:01;;;;;;;;;;;;;;;8.55;53.76;99195.66;5095763;28;19923;-60
2023/04/25 05:03:27;;;;;;;;;;;;;;;8.67;54.86;99201.16;5095613;28;19916;-58
2023/04/25 05:05:52;;;;;;;;;;;;;;;8.59;53.68;99198.75;5099074;28;19965;-60
2023/04/25 05:08:17;;;;;;;;;;;;;;;8.72;54.42;99196.00;5099433;28;19912;-58
2023/04/25 05:10:42;;;;;;;;;;;;;;;8.82;53.72;99191.03;5097822;28;20007;-61
2023/04/25 05:13:08;;;;;;;;;;;;;;;8.76;54.35;99193.72;5081911;28;19920;-58
2023/04/25 05:15:33;;;;;;;;;;;;;;;8.80;54.32;99192.25;5101002;28;19916;-59
2023/04/25 05:17:58;;;;;;;;;;;;;;;8.82;54.36;99190.19;5100499;28;19922;-59
2023/04/25 05:20:24;;;;;;;;;;;;;;;8.72;53.53;99204.03;5099583;28;19919;-60
2023/04/25 05:22:49;;;;;;;;;;;;;;;8.79;54.16;99187.94;5100312;28;19920;-60
2023/04/25 05:25:15;;;;;;;;;;;;;;;8.68;54.10;99181.41;5099761;28;19996;-60
2023/04/25 05:27:40;;;;;;;;;;;;;;;8.49;53.33;99189.31;5100135;28;19927;-59
2023/04/25 05:30:06;;;;;;;;;;;;;;;8.69;53.68;99194.59;5100053;28;20337;-58
2023/04/25 05:32:32;;;;;;;;;;;;;;;8.70;54.17;99198.06;5099505;28;20410;-59
2023/04/25 05:34:57;;;;;;;;;;;;;;;8.76;53.33;99191.03;5099865;28;19923;-61
2023/04/25 05:37:22;;;;;;;;;;;;;;;8.84;53.64;99196.97;5099958;28;19912;-61
2023/04/25 05:39:48;;;;;;;;;;;;;;;8.91;53.42;99202.28;5099545;28;19919;-60
2023/04/25 05:42:13;;;;;;;;;;;;;;;8.91;51.85;99196.94;5100037;28;19927;-61
2023/04/25 05:44:39;;;;;;;;;;;;;;;8.99;53.81;99207.41;5099613;28;19943;-59
2023/04/25 05:47:04;;;;;;;;;;;;;;;8.97;52.60;99196.09;5099110;28;19920;-61
2023/04/25 05:49:30;;;;;;;;;;;;;;;8.92;53.25;99201.25;5100267;28;20091;-59
2023/04/25 05:51:55;;;;;;;;;;;;;;;8.52;53.31;99140.72;5098562;28;19975;-59
2023/04/25 05:54:20;;;;;;;;;;;;;;;8.83;52.26;99200.69;5099028;28;19920;-60
2023/04/25 05:56:46;;;;;;;;;;;;;;;8.95;52.58;99203.50;5099463;28;19951;-60
2023/04/25 05:59:11;;;;;;;;;;;;;;;8.99;52.66;99211.94;5099735;28;19916;-60
2023/04/25 06:01:36;;;;;;;;;;;;;;;8.96;53.02;99205.16;5099066;28;19927;-60
2023/04/25 06:04:02;;;;;;;;;;;;;;;8.91;53.86;99207.66;5099050;28;20425;-59
2023/04/25 06:06:27;;;;;;;;;;;;;;;9.04;53.35;99212.09;5098376;28;20003;-60
2023/04/25 06:08:53;;;;;;;;;;;;;;;9.12;52.85;99217.22;5098445;28;19919;-59
2023/04/25 06:11:18;;;;;;;;;;;;;;;9.05;52.66;99211.09;5099228;28;19912;-59
2023/04/25 06:13:45;;;;;;;;;;;;;;;9.06;52.82;99205.53;5098289;28;20421;-61
2023/04/25 06:16:11;;;;;;;;;;;;;;;9.05;53.14;99214.56;5097877;28;19956;-61
2023/04/25 06:18:36;;;;;;;;;;;;;;;9.15;53.87;99208.75;5098030;28;19981;-61
2023/04/25 06:21:02;;;;;;;;;;;;;;;9.10;52.54;99212.09;5097301;28;19916;-61
2023/04/25 06:23:27;;;;;;;;;;;;;;;8.87;53.33;99207.25;5098536;28;20003;-61
2023/04/25 06:25:53;;;;;;;;;;;;;;;8.91;53.56;99213.00;5099377;28;20372;-60
2023/04/25 06:28:19;;;;;;;;;;;;;;;9.15;53.77;99224.00;5099809;28;19944;-60
2023/04/25 06:30:44;;;;;;;;;;;;;;;9.20;53.20;99218.84;5098381;28;20583;-61
2023/04/25 06:33:09;;;;;;;;;;;;;;;9.21;52.60;99213.25;5099479;28;20556;-60
2023/04/25 06:35:35;;;;;;;;;;;;;;;9.18;51.99;99211.00;5098770;28;19920;-62
2023/04/25 06:38:00;;;;;;;;;;;;;;;9.30;53.50;99217.31;5098222;28;20292;-60
2023/04/25 06:40:25;;;;;;;;;;;;;;;9.35;52.55;99219.34;5097786;28;19912;-60
2023/04/25 06:42:51;;;;;;;;;;;;;;;9.37;51.98;99219.13;5097000;28;19930;-62
2023/04/25 06:45:16;;;;;;;;;;;;;;;9.48;52.08;99229.16;5098069;28;19912;-61
2023/04/25 06:47:41;;;;;;;;;;;;;;;9.57;52.77;99219.81;5096940;28;19923;-59
2023/04/25 06:50:07;;;;;;;;;;;;;;;9.53;51.23;99221.28;5097802;28;19920;-60
2023/04/25 06:52:32;;;;;;;;;;;;;;;9.50;51.54;99222.53;5097789;28;20284;-61
2023/04/25 06:54:57;;;;;;;;;;;;;;;9.53;51.89;99215.94;5097975;28;20018;-61
2023/04/25 06:57:23;;;;;;;;;;;;;;;9.57;52.22;99227.03;5100204;28;20284;-61
2023/04/25 06:59:49;;;;;;;;;;;;;;;9.57;51.82;99222.50;5099657;28;19912;-60
2023/04/25 07:02:14;;;;;;;;;;;;;;;9.64;51.76;99219.78;5100347;28;19912;-59
2023/04/25 07:04:39;;;;;;;;;;;;;;;9.62;52.05;99230.69;5099261;28;19912;-61
2023/04/25 07:07:05;;;;;;;;;;;;;;;9.68;51.89;99229.00;5097578;28;19912;-61
2023/04/25 07:09:33;;;;;;;;;;;;;;;9.67;51.24;99224.69;5096921;28;19916;-62
2023/04/25 07:11:59;;;;;;;;;;;;;;;9.69;51.32;99230.63;5093346;28;19920;-64
2023/04/25 07:14:25;;;;;;;;;;;;;;;9.79;51.38;99235.53;5095472;28;20430;-65
2023/04/25 07:16:50;;;;;;;;;;;;;;;9.77;50.51;99232.22;5096194;28;19991;-63
2023/04/25 07:19:15;;;;;;;;;;;;;;;9.87;50.54;99238.75;5095812;28;19913;-64
2023/04/25 07:21:41;;;;;;;;;;;;;;;9.89;51.34;99235.84;5096399;28;19920;-64
2023/04/25 07:24:06;;;;;;;;;;;;;;;9.89;52.04;99239.34;5096172;28;19912;-64
2023/04/25 07:26:31;;;;;;;;;;;;;;;9.91;52.24;99244.47;5095839;28;20431;-63
2023/04/25 07:28:57;;;;;;;;;;;;;;;9.84;49.66;99236.50;5095384;28;19916;-65
2023/04/25 07:31:22;;;;;;;;;;;;;;;9.94;51.71;99245.94;5095342;28;19920;-64
2023/04/25 07:33:47;;;;;;;;;;;;;;;9.99;51.05;99248.75;5096163;28;19916;-64
2023/04/25 07:36:14;;;;;;;;;;;;;;;10.07;50.70;99256.53;5096961;28;19923;-65
2023/04/25 07:38:40;;;;;;;;;;;;;;;10.10;51.31;99255.25;5096560;28;19957;-64
2023/04/25 07:41:05;;;;;;;;;;;;;;;10.08;51.02;99248.28;5079098;28;19920;-63
2023/04/25 07:43:30;;;;;;;;;;;;;;;10.17;51.33;99264.06;5097225;28;20279;-64
2023/04/25 07:45:56;;;;;;;;;;;;;;;10.14;50.92;99265.34;5096239;28;20050;-63
2023/04/25 07:48:22;;;;;;;;;;;;;;;9.99;50.40;99260.31;5096236;28;19934;-65
2023/04/25 07:50:48;;;;;;;;;;;;;;;9.96;51.34;99262.63;5096027;28;20003;-65
2023/04/25 07:53:13;;;;;;;;;;;;;;;10.07;51.47;99260.03;5096335;28;19912;-64
2023/04/25 07:55:39;;;;;;;;;;;;;;;10.04;51.50;99263.13;5096581;28;19955;-64
2023/04/25 07:58:09;;;;;;;;;;;;;;;10.10;51.09;99269.47;5095783;28;19912;-64
2023/04/25 08:00:34;;;;;;;;;;;;;;;10.08;50.54;99267.06;5093541;28;19983;-64
2023/04/25 08:03:00;;;;;;;;;;;;;;;10.07;51.76;99264.59;5095175;28;19954;-64
2023/04/25 08:05:25;;;;;;;;;;;;;;;9.98;51.38;99269.38;5092990;28;19912;-65
2023/04/25 08:07:50;;;;;;;;;;;;;;;9.78;50.35;99280.28;5093691;28;19993;-63
2023/04/25 08:10:16;;;;;;;;;;;;;;;9.97;51.26;99273.09;5094422;28;19935;-63
2023/04/25 08:12:41;;;;;;;;;;;;;;;10.04;49.98;99276.56;5094451;28;20268;-63
2023/04/25 08:15:07;;;;;;;;;;;;;;;9.81;51.27;99226.22;5094677;28;20325;-64
2023/04/25 08:17:33;;;;;;;;;;;;;;;10.17;50.52;99278.28;5098169;28;19916;-63
2023/04/25 08:19:58;;;;;;;;;;;;;;;10.07;49.96;99281.47;5093931;28;19916;-63
2023/04/25 08:22:23;;;;;;;;;;;;;;;9.97;50.08;99273.09;5093972;28;19935;-65
2023/04/25 08:24:48;;;;;;;;;;;;;;;9.89;51.10;99284.94;5094354;28;20287;-63
2023/04/25 08:27:14;;;;;;;;;;;;;;;10.03;51.06;99285.66;5092760;28;20360;-63
2023/04/25 08:29:39;;;;;;;;;;;;;;;10.10;50.56;99284.78;5094166;28;20053;-64
2023/04/25 08:32:04;;;;;;;;;;;;;;;10.16;50.63;99284.72;5094287;28;19943;-64
2023/04/25 08:34:30;;;;;;;;;;;;;;;10.08;50.10;99288.50;5094415;28;19916;-64
2023/04/25 08:36:55;;;;;;;;;;;;;;;10.19;50.35;99292.31;5096662;28;19928;-65
2023/04/25 08:39:20;;;;;;;;;;;;;;;10.23;51.19;99292.69;5095644;28;20391;-65
2023/04/25 08:41:46;;;;;;;;;;;;;;;10.26;50.32;99292.25;5094919;28;19922;-65
2023/04/25 08:44:11;;;;;;;;;;;;;;;10.33;50.48;99293.06;5096427;28;19938;-64
2023/04/25 08:46:38;;;;;;;;;;;;;;;10.24;50.41;99297.84;5096264;28;19915;-64
2023/04/25 08:49:03;;;;;;;;;;;;;;;10.30;50.24;99298.00;5096310;28;19912;-64
2023/04/25 08:51:31;;;;;;;;;;;;;;;10.33;49.19;99305.66;5096812;28;20280;-64
2023/04/25 08:54:02;;;;;;;;;;;;;;;10.35;49.80;99308.94;5096529;28;19999;-65
2023/04/25 08:56:28;;;;;;;;;;;;;;;10.38;50.75;99303.13;5095836;28;19920;-64
2023/04/25 08:58:54;;;;;;;;;;;;;;;10.13;50.19;99306.63;5095196;28;19954;-65
2023/04/25 09:01:20;;;;;;;;;;;;;;;10.39;51.34;99313.63;5097303;28;20356;-65
2023/04/25 09:03:47;;;;;;;;;;;;;;;10.45;50.81;99311.94;5094744;28;19912;-64
2023/04/25 09:06:12;;;;;;;;;;;;;;;10.51;50.24;99315.59;5094218;28;20019;-64
2023/04/25 09:08:39;;;;;;;;;;;;;;;10.57;50.35;99312.03;5094205;28;19955;-65
2023/04/25 09:11:06;;;;;;;;;;;;;;;10.64;49.23;99321.66;5095527;28;19923;-64
2023/04/25 09:13:31;;;;;;;;;;;;;;;10.61;49.66;99319.41;5096237;28;19930;-65
2023/04/25 09:15:57;;;;;;;;;;;;;;;10.62;49.73;99321.06;5095099;28;19956;-65
2023/04/25 09:18:24;;;;;;;;;;;;;;;10.67;49.98;99322.25;5077400;28;19916;-64
2023/04/25 09:20:51;;;;;;;;;;;;;;;10.78;50.01;99326.88;5094791;28;19912;-65
2023/04/25 09:23:19;;;;;;;;;;;;;;;10.82;49.64;99334.25;5094304;28;20360;-65
2023/04/25 09:25:46;;;;;;;;;;;;;;;10.90;49.34;99330.47;5094848;28;19919;-65
2023/04/25 09:28:12;;;;;;;;;;;;;;;11.01;48.91;99345.00;5095977;28;19935;-65
2023/04/25 09:30:37;;;;;;;;;;;;;;;11.07;49.50;99332.53;5097553;28;19916;-64
2023/04/25 09:33:06;;;;;;;;;;;;;;;11.20;48.87;99335.09;5077701;28;19999;-64
2023/04/25 09:35:42;;;;;;;;;;;;;;;11.28;48.28;99333.97;5096262;28;19969;-65
2023/04/25 09:38:12;;;;;;;;;;;;;;;11.31;48.96;99337.03;5096401;28;19919;-65
2023/04/25 09:40:44;;;;;;;;;;;;;;;11.47;49.03;99326.69;5095230;28;19912;-64
2023/04/25 09:43:19;;;;;;;;;;;;;;;11.53;48.62;99341.91;5095896;28;20269;-64
2023/04/25 09:45:45;;;;;;;;;;;;;;;11.73;47.97;99342.44;5096673;28;19913;-65
2023/04/25 09:48:11;;;;;;;;;;;;;;;11.96;49.13;99339.03;5095765;28;19920;-62
2023/04/25 09:50:36;;;;;;;;;;;;;;;11.75;45.83;99348.41;5097188;28;19912;-64
2023/04/25 09:53:07;;;;;;;;;;;;;;;12.04;48.01;99337.88;5099538;28;19943;-63
2023/04/25 09:55:34;;;;;;;;;;;;;;;12.50;49.41;99346.22;5097038;28;19943;-64
2023/04/25 09:58:03;;;;;;;;;;;;;;;12.66;47.97;99333.94;5099645;28;19916;-65
2023/04/25 10:00:28;;;;;;;;;;;;;;;12.86;47.96;99344.34;5098990;28;19916;-64
2023/04/25 10:02:54;;;;;;;;;;;;;;;12.94;45.02;99349.38;5098211;28;20500;-64
2023/04/25 10:05:19;;;;;;;;;;;;;;;13.27;47.43;99346.03;5098484;28;19912;-64
2023/04/25 10:07:45;;;;;;;;;;;;;;;13.59;47.35;99342.88;5098849;28;19912;-64
2023/04/25 10:10:12;;;;;;;;;;;;;;;13.62;45.64;99344.31;5099434;28;19993;-64
2023/04/25 10:12:39;;;;;;;;;;;;;;;13.85;46.23;99346.88;5098709;28;19924;-65
2023/04/25 10:15:05;;;;;;;;;;;;;;;14.18;45.63;99339.06;5100200;28;19920;-64
2023/04/25 10:17:31;;;;;;;;;;;;;;;14.45;46.19;99339.19;5098545;28;20281;-63
2023/04/25 10:19:57;;;;;;;;;;;;;;;14.39;46.10;99335.59;5099087;28;19957;-63
2023/04/25 10:22:25;;;;;;;;;;;;;;;14.56;45.88;99342.88;5098882;28;20022;-64
2023/04/25 10:24:51;;;;;;;;;;;;;;;14.68;45.66;99347.16;5097749;28;20395;-64
2023/04/25 10:27:16;;;;;;;;;;;;;;;14.49;45.85;99343.06;5080057;28;19912;-64
2023/04/25 10:29:43;;;;;;;;;;;;;;;14.69;45.99;99354.22;5096939;28;19923;-63
2023/04/25 10:32:08;;;;;;;;;;;;;;;14.80;42.97;99351.63;5096946;28;20376;-63
2023/04/25 10:34:38;;;;;;;;;;;;;;;14.79;45.54;99361.63;5098114;28;19923;-64
2023/04/25 10:37:04;;;;;;;;;;;;;;;14.67;45.43;99350.09;5096540;28;19919;-63
2023/04/25 10:39:29;;;;;;;;;;;;;;;14.78;44.18;99359.19;5097984;28;19912;-64
2023/04/25 10:41:58;;;;;;;;;;;;;;;14.71;44.88;99360.19;5098376;28;19999;-63
2023/04/25 10:44:28;;;;;;;;;;;;;;;14.65;44.69;99368.44;5097370;28;19912;-64
2023/04/25 10:46:54;;;;;;;;;;;;;;;14.61;46.08;99367.31;5098207;28;19919;-63
2023/04/25 10:49:33;;;;;;;;;;;;;;;14.64;45.32;99366.84;5098530;28;20409;-63
2023/04/25 10:52:19;;;;;;;;;;;;;;;14.50;44.12;99364.44;5097019;28;19923;-64
2023/04/25 10:54:48;;;;;;;;;;;;;;;14.56;43.56;99370.75;5095864;28;20367;-64
2023/04/25 10:57:33;;;;;;;;;;;;;;;14.44;44.84;99370.81;5095158;28;19912;-64
2023/04/25 10:59:59;;;;;;;;;;;;;;;14.45;44.64;99377.03;5096363;28;19916;-63
2023/04/25 11:02:28;;;;;;;;;;;;;;;14.38;45.58;99374.50;5095062;28;19920;-64
2023/04/25 11:04:54;;;;;;;;;;;;;;;14.44;45.76;99368.09;5097066;28;19912;-63
2023/04/25 11:07:23;;;;;;;;;;;;;;;14.51;46.69;99376.88;5097067;28;19916;-64
2023/04/25 11:09:49;;;;;;;;;;;;;;;14.53;45.47;99379.31;5096071;28;19912;-65
2023/04/25 11:12:14;;;;;;;;;;;;;;;14.52;46.22;99381.22;5097274;28;19969;-64
2023/04/25 11:14:40;;;;;;;;;;;;;;;14.42;44.37;99370.25;5096928;28;19966;-64
2023/04/25 11:17:05;;;;;;;;;;;;;;;14.32;44.82;99370.91;5096719;28;20364;-64
2023/04/25 11:19:31;;;;;;;;;;;;;;;14.14;45.80;99381.94;5096837;28;19955;-63
2023/04/25 11:22:00;;;;;;;;;;;;;;;14.17;45.80;99369.81;5097266;28;19912;-63
2023/04/25 11:24:29;;;;;;;;;;;;;;;14.00;43.88;99369.81;5096155;28;19959;-65
2023/04/25 11:26:55;;;;;;;;;;;;;;;14.16;45.59;99384.41;5096456;28;20010;-63
2023/04/25 11:29:26;;;;;;;;;;;;;;;13.92;42.14;99379.94;5097557;28;19974;-64
2023/04/25 11:31:52;;;;;;;;;;;;;;;14.03;46.57;99382.81;5096966;28;19969;-64
2023/04/25 11:34:20;;;;;;;;;;;;;;;14.03;45.08;99383.63;5094903;28;19994;-63
2023/04/25 11:36:45;;;;;;;;;;;;;;;13.84;46.18;99387.63;5096450;28;19978;-64
2023/04/25 11:39:11;;;;;;;;;;;;;;;13.79;46.66;99391.03;5096719;28;19915;-63
2023/04/25 11:41:40;;;;;;;;;;;;;;;13.91;48.30;99393.66;5096786;28;20252;-64
2023/04/25 11:44:06;;;;;;;;;;;;;;;13.92;45.53;99395.31;5096423;28;19959;-63
2023/04/25 11:46:34;;;;;;;;;;;;;;;13.91;46.89;99389.09;5098325;28;19916;-64
2023/04/25 11:48:59;;;;;;;;;;;;;;;14.13;47.66;99399.19;5097640;28;19915;-63
2023/04/25 11:51:26;;;;;;;;;;;;;;;14.12;45.85;99397.56;5096585;28;19965;-64
2023/04/25 11:53:51;;;;;;;;;;;;;;;14.18;45.40;99393.06;5096010;28;20058;-64
2023/04/25 11:56:16;;;;;;;;;;;;;;;14.20;46.98;99401.75;5096917;28;19967;-64
2023/04/25 11:59:16;;;;;;;;;;;;;;;14.14;45.27;99401.66;5097153;28;19916;-63
2023/04/25 12:01:47;;;;;;;;;;;;;;;14.11;44.35;99404.84;5062481;28;19916;-64
2023/04/25 12:04:13;;;;;;;;;;;;;;;14.11;45.06;99415.66;5096044;28;19955;-64
2023/04/25 12:06:40;;;;;;;;;;;;;;;14.04;44.69;99403.34;5094593;28;19926;-63
2023/04/25 12:09:07;;;;;;;;;;;;;;;14.18;44.56;99401.97;5093530;28;19920;-64
2023/04/25 12:11:40;;;;;;;;;;;;;;;14.29;44.89;99403.78;5094636;28;19923;-62
2023/04/25 12:14:06;;;;;;;;;;;;;;;14.29;45.26;99409.19;5093746;28;20056;-65
2023/04/25 12:16:45;;;;;;;;;;;;;;;14.38;46.32;99412.31;5094303;28;20385;-64
2023/04/25 12:19:13;;;;;;;;;;;;;;;14.16;45.50;99412.22;5095965;28;19919;-64
2023/04/25 12:21:38;;;;;;;;;;;;;;;14.26;45.37;99411.56;5094315;28;19916;-65
2023/04/25 12:24:36;;;;;;;;;;;;;;;14.10;43.75;99405.91;5094821;28;19916;-64
2023/04/25 12:27:03;;;;;;;;;;;;;;;14.29;46.75;99420.00;5069628;28;20249;-64
2023/04/25 12:29:29;;;;;;;;;;;;;;;14.31;46.67;99419.75;5093043;28;20125;-64
2023/04/25 12:31:55;;;;;;;;;;;;;;;14.24;44.22;99419.09;5092729;28;19966;-63
2023/04/25 12:34:20;;;;;;;;;;;;;;;14.25;46.06;99416.16;5094269;28;19916;-65
2023/04/25 12:36:46;;;;;;;;;;;;;;;14.16;45.07;99427.59;5095010;28;19962;-64
2023/04/25 12:39:14;;;;;;;;;;;;;;;14.20;45.19;99418.75;5095273;28;19919;-65
2023/04/25 12:41:40;;;;;;;;;;;;;;;14.09;47.70;99425.84;5095518;28;19922;-64
2023/04/25 12:44:05;;;;;;;;;;;;;;;14.18;47.08;99428.16;5095996;28;19951;-64
2023/04/25 12:46:31;;;;;;;;;;;;;;;14.21;46.27;99433.06;5094167;28;19927;-63